Time;durP1;ratioP1;P1;durP2;ratioP2;P2;SDS_P1;SDS_P2;PMS_P1;PMS_P2;Temp;Humidity;BMP_temperature;BMP_pressure;BME280_temperature;BME280_humidity;BME280_pressure;Samples;Min_cycle;Max_cycle;Signal;HPM_P1;HPM_P2
2022/05/29 00:01:45;;;;;;;9.23;2.05;;;;;;;9.64;78.45;101994.06;6236764;23;20095;-61
2022/05/29 00:04:10;;;;;;;7.90;2.03;;;;;;;9.67;78.46;101998.41;6236929;23;20041;-62
2022/05/29 00:06:39;;;;;;;9.52;2.72;;;;;;;9.64;78.59;101987.91;6237011;23;20007;-61
2022/05/29 00:09:05;;;;;;;10.95;2.17;;;;;;;9.63;78.50;101991.44;6238988;23;20134;-62
2022/05/29 00:11:30;;;;;;;6.25;1.73;;;;;;;9.60;78.35;101981.81;6236805;23;20384;-62
2022/05/29 00:14:00;;;;;;;10.70;1.75;;;;;;;9.61;77.87;101989.69;6238368;23;20437;-62
2022/05/29 00:16:26;;;;;;;6.30;1.73;;;;;;;9.60;77.87;101984.44;6236485;23;20031;-62
2022/05/29 00:18:51;;;;;;;11.10;1.77;;;;;;;9.58;77.92;101984.47;6238464;23;20097;-62
2022/05/29 00:21:16;;;;;;;5.70;2.22;;;;;;;9.55;77.87;101979.25;6237329;23;20050;-63
2022/05/29 00:23:43;;;;;;;8.48;1.95;;;;;;;9.52;77.72;101984.56;6238633;23;20014;-63
2022/05/29 00:26:08;;;;;;;17.00;3.25;;;;;;;9.45;77.80;101981.09;6210635;23;20000;-62
2022/05/29 00:28:34;;;;;;;6.90;2.05;;;;;;;9.46;77.79;101968.81;6237493;23;20086;-63
2022/05/29 00:30:59;;;;;;;10.73;1.80;;;;;;;9.50;77.62;101978.44;6238054;23;20329;-63
2022/05/29 00:33:24;;;;;;;7.70;2.03;;;;;;;9.53;77.42;101967.88;6235883;23;20008;-62
2022/05/29 00:35:50;;;;;;;10.00;2.15;;;;;;;9.53;77.33;101973.13;6237928;23;20000;-63
2022/05/29 00:38:15;;;;;;;4.88;1.77;;;;;;;9.56;77.02;101969.59;6209396;23;20000;-63
2022/05/29 00:41:04;;;;;;;7.13;1.98;;;;;;;9.53;77.26;101974.88;6238903;23;20421;-61
2022/05/29 00:43:30;;;;;;;7.45;2.10;;;;;;;9.51;76.98;101963.53;6209416;23;20097;-62
2022/05/29 00:46:00;;;;;;;8.77;2.33;;;;;;;9.47;77.26;101967.94;6237352;23;20433;-61
2022/05/29 00:48:25;;;;;;;8.02;1.77;;;;;;;9.45;77.00;101967.94;6209265;23;20079;-62
2022/05/29 00:50:56;;;;;;;8.68;1.95;;;;;;;9.40;76.97;101959.25;6238730;23;20078;-65
2022/05/29 00:53:23;;;;;;;7.45;2.00;;;;;;;9.29;77.16;101956.72;6208543;23;20038;-66
2022/05/29 00:55:52;;;;;;;6.95;2.15;;;;;;;9.25;77.24;101949.75;6237444;23;20000;-61
2022/05/29 00:58:18;;;;;;;6.78;1.63;;;;;;;9.26;77.39;101953.25;6209367;23;20089;-62
2022/05/29 01:00:43;;;;;;;6.78;1.75;;;;;;;9.26;77.45;101947.97;6211265;23;20079;-61
2022/05/29 01:03:09;;;;;;;13.43;2.13;;;;;;;9.22;77.42;101945.38;6237106;23;20087;-63
2022/05/29 01:05:35;;;;;;;7.32;1.80;;;;;;;9.20;77.61;101946.28;6236708;23;20000;-62
2022/05/29 01:08:05;;;;;;;4.70;1.70;;;;;;;9.19;77.73;101944.56;6236255;23;20325;-61
2022/05/29 01:11:17;;;;;;;8.07;1.85;;;;;;;9.15;77.80;101938.44;6238079;23;20000;-62
2022/05/29 01:13:54;;;;;;;6.55;2.22;;;;;;;9.17;77.75;101936.69;6234805;23;20100;-61
2022/05/29 01:16:40;;;;;;;5.78;2.03;;;;;;;9.18;77.88;101927.91;6209855;23;20050;-62
2022/05/29 01:19:30;;;;;;;5.57;2.35;;;;;;;9.23;77.91;101928.72;6208424;23;20054;-63
2022/05/29 01:22:08;;;;;;;8.07;2.58;;;;;;;9.27;77.75;101923.44;6237321;23;20036;-61
2022/05/29 01:24:58;;;;;;;5.35;1.55;;;;;;;9.34;77.65;101922.50;6236705;23;20083;-61
2022/05/29 01:27:50;;;;;;;16.77;4.10;;;;;;;9.44;77.12;101920.59;6209322;23;20028;-61
2022/05/29 01:30:24;;;;;;;11.95;2.00;;;;;;;9.52;76.96;101923.16;6209507;23;20336;-61
2022/05/29 01:33:18;;;;;;;4.45;2.05;;;;;;;9.58;76.76;101918.66;6209983;23;20012;-62
2022/05/29 01:35:48;;;;;;;5.07;1.60;;;;;;;9.65;76.43;101910.72;6210512;23;20004;-62
2022/05/29 01:38:43;;;;;;;10.15;1.65;;;;;;;9.67;76.47;101909.81;6236822;23;20468;-63
2022/05/29 01:41:13;;;;;;;9.05;1.52;;;;;;;9.73;76.37;101908.88;6210812;23;20004;-62
2022/05/29 01:43:43;;;;;;;7.90;1.40;;;;;;;9.81;75.94;101901.72;6209649;23;20012;-61
2022/05/29 01:46:18;;;;;;;6.32;1.75;;;;;;;9.81;75.99;101906.97;6210202;23;20010;-61
2022/05/29 01:48:46;;;;;;;8.02;1.50;;;;;;;9.84;75.79;101903.44;6236458;23;20020;-62
2022/05/29 01:51:18;;;;;;;8.80;1.58;;;;;;;9.83;76.26;101899.94;6236789;23;20061;-62
2022/05/29 01:54:09;;;;;;;5.57;2.22;;;;;;;9.83;76.11;101902.59;6210001;23;20008;-61
2022/05/29 01:56:40;;;;;;;5.80;1.52;;;;;;;9.89;76.08;101900.75;6210537;23;20008;-64
2022/05/29 01:59:14;;;;;;;7.18;1.42;;;;;;;9.81;76.61;101896.47;6207960;23;20004;-61
2022/05/29 02:01:43;;;;;;;4.93;1.55;;;;;;;9.89;76.58;101892.84;6211459;23;20011;-63
2022/05/29 02:04:10;;;;;;;6.88;2.03;;;;;;;9.98;76.71;101893.59;6208627;23;20000;-62
2022/05/29 02:09:24;;;;;;;7.00;2.00;;;;;;;10.09;76.70;101889.94;6212941;23;20116;-62
2022/05/29 02:11:52;;;;;;;7.30;1.67;;;;;;;10.19;76.47;101885.38;6210740;23;20011;-63
2022/05/29 02:14:21;;;;;;;9.82;1.63;;;;;;;10.29;76.00;101889.63;6208613;23;20023;-63
2022/05/29 02:16:53;;;;;;;9.07;2.08;;;;;;;10.33;75.80;101883.41;6209315;23;20071;-62
2022/05/29 02:20:04;;;;;;;6.13;1.60;;;;;;;10.35;75.53;101881.63;6209596;23;19996;-63
2022/05/29 02:22:29;;;;;;;6.10;1.80;;;;;;;10.35;75.37;101880.75;6211139;23;20011;-62
2022/05/29 02:24:59;;;;;;;3.88;1.00;;;;;;;10.39;75.19;101881.56;6183974;23;20368;-62
2022/05/29 02:27:34;;;;;;;4.30;1.60;;;;;;;10.42;75.10;101871.84;6236232;23;20023;-61
2022/05/29 02:30:01;;;;;;;11.85;2.33;;;;;;;10.48;75.56;101881.47;6209208;23;20007;-62
2022/05/29 02:32:34;;;;;;;6.78;1.98;;;;;;;10.56;75.20;101879.56;6237333;23;20012;-61
2022/05/29 02:35:28;;;;;;;5.30;1.60;;;;;;;10.63;75.38;101868.91;6236321;23;20078;-63
2022/05/29 02:38:32;;;;;;;5.95;1.60;;;;;;;10.69;75.75;101866.16;6235825;23;20330;-62
2022/05/29 02:41:15;;;;;;;8.13;2.30;;;;;;;10.80;75.37;101871.22;6209204;23;20385;-61
2022/05/29 02:43:49;;;;;;;5.60;1.55;;;;;;;10.87;75.25;101862.34;6208134;23;20008;-62
2022/05/29 02:46:29;;;;;;;7.03;1.48;;;;;;;10.91;75.33;101866.66;6209339;23;20009;-62
2022/05/29 02:49:14;;;;;;;11.75;2.53;;;;;;;10.98;75.71;101868.25;6236447;23;20035;-62
2022/05/29 02:51:44;;;;;;;7.25;2.17;;;;;;;11.05;75.68;101862.88;6209665;23;20055;-63
2022/05/29 02:54:10;;;;;;;10.10;2.33;;;;;;;11.14;76.07;101869.72;6209250;23;20004;-62
2022/05/29 02:56:36;;;;;;;8.02;1.67;;;;;;;11.18;76.49;101863.50;6236276;23;20004;-61
2022/05/29 02:59:02;;;;;;;10.27;2.13;;;;;;;11.30;75.45;101857.97;6234345;23;20066;-65
2022/05/29 03:02:02;;;;;;;9.52;2.00;;;;;;;11.35;74.11;101864.00;6210478;23;20000;-61
2022/05/29 03:04:51;;;;;;;8.85;1.80;;;;;;;11.36;74.29;101865.78;6107935;23;20036;-61
2022/05/29 03:07:41;;;;;;;7.32;1.67;;;;;;;11.45;73.58;101854.16;6208897;23;20000;-63
2022/05/29 03:10:44;;;;;;;6.55;1.67;;;;;;;11.48;72.96;101867.28;6235798;23;20004;-62
2022/05/29 03:13:17;;;;;;;5.55;1.30;;;;;;;11.52;72.38;101862.78;6060281;23;20457;-61
2022/05/29 03:15:55;;;;;;;7.53;1.58;;;;;;;11.37;73.67;101862.22;6194663;23;20405;-62
2022/05/29 03:18:39;;;;;;;12.85;2.05;;;;;;;11.48;74.00;101864.66;6211330;23;20008;-61
2022/05/29 03:21:23;;;;;;;7.60;1.50;;;;;;;11.58;74.33;101865.31;6239509;23;20008;-62
2022/05/29 03:24:20;;;;;;;6.00;1.60;;;;;;;11.50;75.11;101865.47;6210864;23;20004;-61
2022/05/29 03:26:50;;;;;;;13.20;2.05;;;;;;;11.43;76.51;101865.63;6208439;23;20004;-62
2022/05/29 03:29:43;;;;;;;8.20;1.55;;;;;;;11.51;76.72;101871.63;6237511;23;20004;-62
2022/05/29 03:32:09;;;;;;;11.68;2.13;;;;;;;11.51;76.97;101866.34;6238285;23;20008;-62
2022/05/29 03:34:34;;;;;;;7.45;1.95;;;;;;;11.49;77.47;101868.13;6238107;23;20054;-61
2022/05/29 03:36:59;;;;;;;7.70;1.50;;;;;;;11.46;77.71;101866.44;6239015;23;20044;-62
2022/05/29 03:39:24;;;;;;;7.80;2.13;;;;;;;11.46;77.91;101858.53;6236900;23;20891;-61
2022/05/29 03:41:52;;;;;;;6.68;1.58;;;;;;;11.48;77.86;101863.75;6237986;23;20004;-64
2022/05/29 03:44:19;;;;;;;6.38;1.70;;;;;;;11.51;78.13;101853.16;6184706;23;20012;-61
2022/05/29 03:46:45;;;;;;;12.23;2.47;;;;;;;11.48;78.08;101851.44;6239448;23;20000;-61
2022/05/29 03:49:12;;;;;;;7.70;1.77;;;;;;;11.55;77.90;101852.16;6237062;23;20015;-63
2022/05/29 03:51:38;;;;;;;11.30;1.88;;;;;;;11.48;78.30;101843.53;6212152;23;20008;-63
2022/05/29 03:54:04;;;;;;;8.13;1.45;;;;;;;11.55;78.46;101849.53;6237350;23;20032;-63
2022/05/29 03:56:29;;;;;;;3.95;1.60;;;;;;;11.57;78.55;101839.81;6238984;23;20015;-61
2022/05/29 03:58:55;;;;;;;5.50;1.90;;;;;;;11.57;78.52;101839.81;6236717;23;20071;-61
2022/05/29 04:01:21;;;;;;;5.70;1.30;;;;;;;11.62;78.44;101837.09;6237661;23;20356;-61
2022/05/29 04:03:46;;;;;;;4.82;1.60;;;;;;;11.61;78.30;101835.31;6238354;23;20024;-63
2022/05/29 04:06:11;;;;;;;5.43;1.80;;;;;;;11.63;78.23;101829.09;6237448;23;20001;-61
2022/05/29 04:14:05;;;;;;;7.85;1.98;;;;;;;11.72;77.96;101829.81;6237408;23;20665;-62
2022/05/29 04:16:31;;;;;;;7.28;1.50;;;;;;;11.75;77.91;101832.38;6238247;23;20000;-63
2022/05/29 04:18:56;;;;;;;6.70;1.60;;;;;;;11.76;78.30;101831.47;6238607;23;20046;-62
2022/05/29 04:21:21;;;;;;;6.35;1.90;;;;;;;11.76;78.33;101826.19;6237228;23;20077;-62
2022/05/29 04:23:47;;;;;;;6.95;1.83;;;;;;;11.77;78.20;101821.78;6238702;23;20004;-63
2022/05/29 04:26:14;;;;;;;6.30;1.65;;;;;;;11.75;78.67;101825.31;6237859;23;20290;-62
2022/05/29 04:28:39;;;;;;;5.57;1.73;;;;;;;11.75;78.66;101829.75;6238184;23;20097;-62
2022/05/29 04:31:05;;;;;;;6.20;1.42;;;;;;;11.75;78.96;101829.75;6238573;23;20004;-63
2022/05/29 04:33:30;;;;;;;6.10;1.83;;;;;;;11.81;78.68;101832.25;6238827;23;20004;-61
2022/05/29 04:35:56;;;;;;;7.30;1.70;;;;;;;11.85;78.28;101836.53;6236763;23;20004;-61
2022/05/29 04:38:25;;;;;;;7.28;1.90;;;;;;;11.73;78.31;101836.81;6237540;23;20004;-62
2022/05/29 04:40:50;;;;;;;4.85;2.13;;;;;;;11.71;77.71;101831.56;6236926;23;20011;-63
2022/05/29 04:43:16;;;;;;;12.38;2.58;;;;;;;11.68;78.16;101834.28;6236860;23;20004;-64
2022/05/29 04:45:43;;;;;;;9.90;1.90;;;;;;;11.70;77.92;101836.88;6237599;23;20008;-60
2022/05/29 04:48:10;;;;;;;4.47;1.45;;;;;;;11.76;76.94;101834.09;6236993;23;20011;-64
2022/05/29 04:50:36;;;;;;;8.18;1.60;;;;;;;11.81;77.07;101826.97;6237904;23;20035;-61
2022/05/29 04:53:01;;;;;;;9.43;1.90;;;;;;;11.94;76.73;101830.19;6236729;23;20004;-64
2022/05/29 04:55:27;;;;;;;4.25;1.60;;;;;;;12.03;76.39;101817.63;6238620;23;20011;-63
2022/05/29 04:57:52;;;;;;;3.92;1.50;;;;;;;12.09;76.45;101815.75;6236058;23;20004;-63
2022/05/29 05:00:18;;;;;;;5.78;1.60;;;;;;;12.23;75.86;101818.06;6237013;23;20321;-61
2022/05/29 05:02:43;;;;;;;6.80;1.88;;;;;;;12.28;75.28;101817.94;6237469;23;20027;-62
2022/05/29 05:05:09;;;;;;;4.28;1.60;;;;;;;12.22;75.50;101812.81;6236248;23;20433;-61
2022/05/29 05:07:35;;;;;;;5.85;1.60;;;;;;;12.31;75.32;101809.06;6211219;23;20005;-62
2022/05/29 05:10:02;;;;;;;4.38;1.33;;;;;;;12.36;74.97;101809.81;6237056;23;20416;-62
2022/05/29 05:12:27;;;;;;;5.30;1.75;;;;;;;12.25;75.23;101807.44;6235511;23;20477;-62
2022/05/29 05:14:53;;;;;;;9.65;1.50;;;;;;;12.34;74.77;101815.13;6236492;23;20011;-62
2022/05/29 05:17:18;;;;;;;7.53;1.42;;;;;;;12.31;74.66;101817.84;6236902;23;20000;-61
2022/05/29 05:19:43;;;;;;;7.75;1.50;;;;;;;12.22;74.81;101815.47;6237442;23;20004;-62
2022/05/29 05:22:09;;;;;;;5.57;1.58;;;;;;;12.29;74.68;101813.53;6236660;23;20054;-62
2022/05/29 05:24:36;;;;;;;5.05;1.13;;;;;;;12.31;74.46;101823.13;6238663;23;20051;-62
2022/05/29 05:27:02;;;;;;;8.77;1.70;;;;;;;12.23;74.58;101825.13;6235790;23;20000;-63
2022/05/29 05:29:28;;;;;;;5.28;1.17;;;;;;;12.17;74.68;101822.63;6239045;23;20511;-62
2022/05/29 05:31:53;;;;;;;10.13;1.40;;;;;;;12.03;75.27;101812.34;6237497;23;20453;-61
2022/05/29 05:34:18;;;;;;;3.22;1.50;;;;;;;11.78;75.36;101812.94;6238024;23;20000;-61
2022/05/29 05:36:43;;;;;;;5.78;1.15;;;;;;;11.83;74.82;101811.94;6236494;23;20007;-61
2022/05/29 05:39:09;;;;;;;4.70;1.35;;;;;;;12.00;73.36;101813.31;6235887;23;20004;-61
2022/05/29 05:41:35;;;;;;;5.40;1.40;;;;;;;12.13;72.98;101809.50;6236714;23;20000;-61
2022/05/29 05:44:01;;;;;;;3.78;1.23;;;;;;;12.21;72.41;101805.78;6237639;23;20027;-61
2022/05/29 05:46:26;;;;;;;4.88;1.38;;;;;;;12.37;72.57;101804.47;6238974;23;20005;-61
2022/05/29 05:48:51;;;;;;;6.38;1.48;;;;;;;12.40;71.53;101806.19;6237841;23;20004;-62
2022/05/29 05:51:17;;;;;;;2.90;1.10;;;;;;;12.46;72.05;101811.31;6237989;23;20007;-61
2022/05/29 05:53:42;;;;;;;7.38;1.50;;;;;;;12.49;71.83;101816.50;6236453;23;20275;-61
2022/05/29 05:56:10;;;;;;;2.58;1.33;;;;;;;12.61;71.76;101803.88;6237493;23;20004;-62
2022/05/29 05:58:36;;;;;;;9.25;1.33;;;;;;;12.71;71.59;101794.81;6236994;23;20000;-61
2022/05/29 06:01:04;;;;;;;3.22;1.27;;;;;;;12.82;71.88;101806.84;6236752;23;20028;-62
2022/05/29 06:03:29;;;;;;;5.50;1.05;;;;;;;12.77;72.62;101804.34;6210353;23;20000;-63
2022/05/29 06:05:54;;;;;;;3.88;1.10;;;;;;;13.13;71.96;101805.97;6235874;23;20083;-62
2022/05/29 06:08:20;;;;;;;7.00;1.40;;;;;;;13.18;71.53;101797.91;6236683;23;20099;-62
2022/05/29 06:10:45;;;;;;;6.18;1.33;;;;;;;13.35;71.23;101795.63;6236363;23;20005;-62
2022/05/29 06:13:10;;;;;;;3.28;1.13;;;;;;;13.46;70.78;101791.78;6235746;23;20414;-62
2022/05/29 06:15:36;;;;;;;4.43;1.10;;;;;;;13.38;70.71;101792.88;6236239;23;20501;-62
2022/05/29 06:18:01;;;;;;;5.25;1.08;;;;;;;13.35;71.30;101790.31;6237403;23;20000;-66
2022/05/29 06:20:26;;;;;;;6.15;1.58;;;;;;;13.46;71.20;101787.31;6236275;23;20080;-63
2022/05/29 06:22:52;;;;;;;4.63;1.33;;;;;;;13.52;70.83;101796.91;6237555;23;20339;-61
2022/05/29 06:25:17;;;;;;;4.43;1.45;;;;;;;13.56;71.67;101784.44;6236197;23;20055;-61
2022/05/29 06:27:44;;;;;;;6.72;1.30;;;;;;;13.65;70.51;101781.50;6235989;23;20057;-61
2022/05/29 06:30:12;;;;;;;9.07;2.05;;;;;;;13.68;70.42;101786.69;6236115;23;20004;-61
2022/05/29 06:32:38;;;;;;;6.53;1.63;;;;;;;13.64;70.28;101785.06;6236907;23;20007;-61
2022/05/29 06:35:05;;;;;;;4.10;1.30;;;;;;;13.59;69.97;101795.81;6236430;23;20011;-62
2022/05/29 06:37:31;;;;;;;9.23;1.88;;;;;;;13.44;71.51;101798.88;6210405;23;20116;-64
2022/05/29 06:39:57;;;;;;;7.50;1.45;;;;;;;13.42;71.45;101795.44;6237042;23;20027;-62
2022/05/29 06:42:22;;;;;;;7.15;1.67;;;;;;;13.39;71.90;101797.25;6235279;23;20050;-62
2022/05/29 06:44:48;;;;;;;10.00;1.95;;;;;;;13.63;70.89;101796.56;6236733;23;20031;-63
2022/05/29 06:47:15;;;;;;;3.92;1.50;;;;;;;13.67;71.41;101790.28;6235764;22;20007;-61
2022/05/29 06:49:41;;;;;;;5.15;1.30;;;;;;;13.95;71.19;101791.16;6236979;23;19996;-61
2022/05/29 06:52:10;;;;;;;6.60;1.50;;;;;;;14.11;70.04;101787.06;6235583;23;20031;-62
2022/05/29 06:54:36;;;;;;;8.32;1.83;;;;;;;14.16;69.87;101786.91;6237177;23;20322;-61
2022/05/29 06:57:02;;;;;;;4.78;1.50;;;;;;;14.27;70.10;101794.50;6235000;23;20027;-63
2022/05/29 06:59:27;;;;;;;5.18;1.50;;;;;;;14.54;69.09;101789.13;6237901;23;20425;-61
2022/05/29 07:07:22;;;;;;;7.93;1.50;;;;;;;14.78;67.56;101790.09;6235041;23;20023;-61
2022/05/29 07:09:48;;;;;;;13.23;2.20;;;;;;;14.94;67.07;101783.34;6236213;23;20005;-61
2022/05/29 07:12:26;;;;;;;7.32;1.48;;;;;;;15.38;66.95;101778.13;6234537;23;20467;-62
2022/05/29 07:15:06;;;;;;;7.50;1.83;;;;;;;15.69;66.43;101780.47;6237160;23;20454;-62
2022/05/29 07:17:31;;;;;;;8.30;1.70;;;;;;;16.03;65.68;101779.13;6237231;23;20039;-65
2022/05/29 07:19:57;;;;;;;9.82;1.70;;;;;;;15.94;65.30;101775.03;6237273;23;20004;-63
2022/05/29 07:22:22;;;;;;;4.45;1.45;;;;;;;16.08;62.15;101787.78;6234969;23;20012;-63
2022/05/29 07:24:47;;;;;;;6.78;1.20;;;;;;;15.78;60.75;101785.44;6237960;23;20004;-62
2022/05/29 07:27:13;;;;;;;4.13;1.40;;;;;;;15.53;60.96;101786.41;6235577;23;20337;-63
2022/05/29 07:29:38;;;;;;;6.45;1.48;;;;;;;15.35;63.50;101788.00;6235921;23;20036;-62
2022/05/29 07:32:05;;;;;;;5.53;1.45;;;;;;;15.43;63.63;101785.03;6237088;23;20003;-62
2022/05/29 07:34:30;;;;;;;6.00;1.85;;;;;;;15.12;64.08;101787.97;6237429;23;20055;-61
2022/05/29 07:37:08;;;;;;;5.18;1.40;;;;;;;14.57;63.67;101778.41;6236142;23;20360;-62
2022/05/29 07:39:36;;;;;;;5.00;1.33;;;;;;;14.28;63.67;101785.63;6236004;23;20083;-60
2022/05/29 07:44:45;;;;;;;10.18;2.20;;;;;;;13.83;65.51;101784.47;6235732;23;20074;-61
2022/05/29 07:47:11;;;;;;;6.55;1.27;;;;;;;13.83;66.34;101780.03;6236137;23;20421;-62
2022/05/29 07:49:39;;;;;;;7.50;1.52;;;;;;;14.10;65.70;101771.22;6235398;23;19996;-61
2022/05/29 07:52:05;;;;;;;9.30;1.57;;;;;;;14.34;65.58;101764.22;6236115;23;20008;-64
2022/05/29 07:54:30;;;;;;;7.97;1.90;;;;;;;14.54;65.35;101770.56;6236128;23;20534;-61
2022/05/29 07:56:55;;;;;;;8.75;1.83;;;;;;;14.64;63.92;101763.16;6234009;23;20000;-62
2022/05/29 07:59:22;;;;;;;7.68;1.70;;;;;;;15.04;63.80;101768.81;6236756;23;20020;-61
2022/05/29 08:01:48;;;;;;;6.13;1.77;;;;;;;15.27;64.06;101775.88;6238540;23;20341;-61
2022/05/29 08:04:14;;;;;;;10.15;2.03;;;;;;;15.61;63.98;101778.13;6237298;23;20027;-62
2022/05/29 08:06:39;;;;;;;11.02;2.15;;;;;;;15.48;64.65;101783.94;6238174;23;20372;-60
2022/05/29 08:09:05;;;;;;;6.53;1.40;;;;;;;14.98;63.25;101790.25;6237077;23;20011;-63
2022/05/29 08:11:30;;;;;;;6.53;1.50;;;;;;;14.83;63.69;101787.25;6238439;23;20000;-61
2022/05/29 08:13:56;;;;;;;7.95;1.90;;;;;;;14.37;67.06;101787.97;6239023;23;20024;-61
2022/05/29 08:16:22;;;;;;;7.50;1.60;;;;;;;14.41;68.69;101786.06;6238239;23;20465;-61
2022/05/29 08:18:47;;;;;;;7.15;1.48;;;;;;;14.39;69.46;101787.91;6237558;23;20054;-60
2022/05/29 08:21:12;;;;;;;10.05;1.77;;;;;;;14.34;68.86;101785.44;6237654;23;20000;-60
2022/05/29 08:23:38;;;;;;;9.25;1.85;;;;;;;14.59;68.79;101781.91;6238087;23;20004;-62
2022/05/29 08:31:31;;;;;;;4.93;1.33;;;;;;;14.98;68.14;101780.53;6214736;23;20022;-64
2022/05/29 08:33:57;;;;;;;6.00;2.10;;;;;;;15.34;68.33;101770.31;6238452;23;20087;-62
2022/05/29 08:36:24;;;;;;;5.68;1.48;;;;;;;15.51;66.35;101767.03;6237296;23;20012;-61
2022/05/29 08:38:52;;;;;;;9.35;1.58;;;;;;;15.71;66.13;101768.00;6210953;23;20007;-61
2022/05/29 08:41:34;;;;;;;2.92;1.27;;;;;;;15.64;63.34;101776.22;6235663;23;20011;-61
2022/05/29 08:44:06;;;;;;;2.05;0.60;;;;;;;15.43;61.69;101772.63;6238335;23;20067;-62
2022/05/29 08:46:40;;;;;;;5.50;1.00;;;;;;;16.19;61.15;101773.16;6237298;23;20026;-65
2022/05/29 08:49:06;;;;;;;1.92;0.90;;;;;;;16.15;57.89;101772.41;6237482;23;20008;-62
2022/05/29 08:51:53;;;;;;;2.25;0.77;;;;;;;15.97;59.55;101768.75;6209782;23;20455;-61
2022/05/29 08:54:38;;;;;;;4.30;0.90;;;;;;;16.21;57.24;101765.97;6238719;23;20012;-62
2022/05/29 08:57:23;;;;;;;6.68;1.10;;;;;;;16.20;57.89;101761.59;6235435;23;20459;-62
2022/05/29 08:59:56;;;;;;;3.70;1.05;;;;;;;16.23;57.42;101759.66;6210351;23;20075;-62
2022/05/29 09:02:40;;;;;;;3.58;0.60;;;;;;;15.87;56.36;101766.44;6236790;23;20008;-62
2022/05/29 09:05:32;;;;;;;2.10;0.70;;;;;;;16.11;56.47;101766.38;6236164;23;20678;-61
2022/05/29 09:08:06;;;;;;;1.00;0.50;;;;;;;16.22;56.05;101763.25;6209790;23;20011;-63
2022/05/29 09:10:59;;;;;;;2.13;0.50;;;;;;;16.60;56.71;101751.84;6210050;23;20004;-64
2022/05/29 09:13:35;;;;;;;1.85;0.55;;;;;;;16.75;56.04;101754.75;6230130;23;20464;-62
2022/05/29 09:16:10;;;;;;;0.85;0.40;;;;;;;16.73;55.17;101749.50;6237767;23;20016;-61
2022/05/29 09:18:41;;;;;;;1.80;0.82;;;;;;;16.32;52.71;101760.19;6210412;23;20023;-62
2022/05/29 09:21:17;;;;;;;0.40;0.22;;;;;;;16.41;52.28;101763.28;6209040;23;20062;-62
2022/05/29 09:24:14;;;;;;;1.10;0.50;;;;;;;15.94;53.67;101763.50;6236389;23;20449;-64
2022/05/29 09:26:39;;;;;;;1.27;0.45;;;;;;;16.27;53.01;101757.72;6178954;23;20467;-62
2022/05/29 09:29:06;;;;;;;3.25;0.40;;;;;;;16.39;52.85;101754.53;6236425;23;20024;-60
2022/05/29 09:31:32;;;;;;;1.92;0.45;;;;;;;16.53;53.78;101753.06;6209569;23;20011;-64
2022/05/29 09:33:58;;;;;;;2.88;0.57;;;;;;;16.50;52.94;101747.88;6237353;23;20022;-59
2022/05/29 09:36:50;;;;;;;5.70;0.70;;;;;;;16.62;53.85;101752.63;6208829;23;20000;-62
2022/05/29 09:39:35;;;;;;;3.42;0.65;;;;;;;16.60;54.26;101754.50;6235829;23;20023;-60
2022/05/29 09:42:02;;;;;;;3.20;0.93;;;;;;;16.66;54.94;101743.59;6209110;23;20000;-62
2022/05/29 09:44:28;;;;;;;3.38;0.70;;;;;;;16.55;57.95;101754.72;6210476;23;20015;-63
2022/05/29 09:46:55;;;;;;;2.13;0.80;;;;;;;16.96;54.93;101755.56;6235902;23;20007;-61
2022/05/29 09:49:41;;;;;;;4.53;0.90;;;;;;;16.84;54.08;101743.69;6235981;23;20074;-62
2022/05/29 09:52:13;;;;;;;3.13;1.02;;;;;;;17.23;53.56;101735.72;6235932;23;20008;-63
2022/05/29 09:54:50;;;;;;;4.93;0.80;;;;;;;17.54;53.77;101742.22;6237255;23;20000;-62
2022/05/29 09:57:27;;;;;;;4.90;1.15;;;;;;;17.57;53.23;101752.72;6208229;23;20014;-63
2022/05/29 10:00:00;;;;;;;4.53;1.10;;;;;;;16.33;58.04;101751.28;6236235;23;20074;-61
2022/05/29 10:02:29;;;;;;;6.30;1.08;;;;;;;15.28;61.43;101766.13;6208537;23;20000;-61
2022/05/29 10:04:59;;;;;;;9.63;1.55;;;;;;;14.08;66.55;101768.63;6210063;23;20066;-62
2022/05/29 10:07:42;;;;;;;5.43;1.40;;;;;;;13.64;70.42;101767.38;6236551;23;20381;-62
2022/05/29 10:10:13;;;;;;;5.00;1.40;;;;;;;13.31;71.87;101767.50;6211390;23;20027;-62
2022/05/29 10:12:44;;;;;;;5.28;1.30;;;;;;;13.44;71.23;101767.13;6237141;23;20065;-61
2022/05/29 10:15:33;;;;;;;6.93;1.38;;;;;;;13.40;73.15;101763.72;6237759;23;20087;-63
2022/05/29 10:18:04;;;;;;;6.30;1.40;;;;;;;13.61;74.15;101770.13;6237798;23;20004;-62
2022/05/29 10:20:35;;;;;;;4.57;1.45;;;;;;;13.82;72.72;101751.81;6237966;23;20034;-63
2022/05/29 10:23:07;;;;;;;5.10;1.33;;;;;;;13.93;71.83;101758.56;6238256;23;20004;-62
2022/05/29 10:25:36;;;;;;;5.65;1.23;;;;;;;14.01;73.24;101760.03;6237149;23;20004;-64
2022/05/29 10:28:14;;;;;;;4.25;1.30;;;;;;;14.52;71.09;101751.22;6209478;23;20012;-65
2022/05/29 10:30:54;;;;;;;10.10;1.60;;;;;;;14.97;69.65;101754.91;6209228;23;20011;-61
2022/05/29 10:33:22;;;;;;;8.23;1.52;;;;;;;15.07;67.80;101758.06;6236589;23;20008;-63
2022/05/29 10:35:49;;;;;;;5.10;1.48;;;;;;;15.13;66.34;101757.84;6235776;23;20062;-61
2022/05/29 10:38:22;;;;;;;6.55;1.67;;;;;;;14.91;66.50;101748.03;6236081;23;20477;-62
2022/05/29 10:40:50;;;;;;;13.93;2.35;;;;;;;15.61;64.27;101756.88;6234830;23;20008;-61
2022/05/29 10:43:37;;;;;;;10.13;2.13;;;;;;;15.94;62.90;101750.22;6209411;23;20350;-61
2022/05/29 10:46:05;;;;;;;9.95;1.95;;;;;;;16.22;61.97;101754.41;6235397;23;20050;-61
2022/05/29 10:49:07;;;;;;;14.02;1.98;;;;;;;16.02;61.54;101750.81;6237801;23;20011;-60
2022/05/29 10:51:50;;;;;;;9.07;2.10;;;;;;;16.06;61.25;101748.88;6229393;23;20008;-64
2022/05/29 10:54:34;;;;;;;12.00;2.10;;;;;;;15.74;64.04;101747.47;6210337;23;20087;-62
2022/05/29 10:56:59;;;;;;;7.90;1.67;;;;;;;16.35;62.02;101750.28;6236098;23;20068;-62
2022/05/29 10:59:47;;;;;;;3.90;1.17;;;;;;;16.26;58.07;101754.19;6237133;23;20028;-62
2022/05/29 11:06:03;;;;;;;4.72;1.15;;;;;;;16.55;52.45;101745.84;6237683;23;20019;-62
2022/05/29 11:08:43;;;;;;;6.72;1.30;;;;;;;16.52;52.24;101748.66;6237087;23;20000;-61
2022/05/29 11:11:19;;;;;;;6.72;1.38;;;;;;;16.96;50.99;101736.06;6236099;23;20015;-60
2022/05/29 11:13:47;;;;;;;9.05;1.20;;;;;;;17.18;51.40;101731.47;6236545;23;20044;-61
2022/05/29 11:17:03;;;;;;;3.63;1.55;;;;;;;17.30;49.08;101734.47;6236383;23;20336;-61
2022/05/29 11:20:01;;;;;;;3.17;1.10;;;;;;;17.26;49.34;101731.13;6172823;23;20440;-60
2022/05/29 11:22:26;;;;;;;5.43;1.70;;;;;;;17.70;47.82;101725.47;6153004;23;20429;-60
2022/05/29 11:25:06;;;;;;;4.88;1.20;;;;;;;17.64;46.53;101730.16;6236442;23;20083;-62
2022/05/29 11:27:51;;;;;;;6.38;1.42;;;;;;;17.88;46.80;101723.69;6209217;23;20421;-64
2022/05/29 11:30:30;;;;;;;4.22;1.35;;;;;;;17.75;47.93;101724.31;6236748;23;20035;-60
2022/05/29 11:33:12;;;;;;;8.15;1.80;;;;;;;17.74;48.08;101721.72;6210102;23;20008;-62
2022/05/29 11:35:46;;;;;;;7.07;1.38;;;;;;;18.15;47.09;101717.91;6212459;23;20032;-61
2022/05/29 11:38:33;;;;;;;5.25;1.25;;;;;;;18.50;46.79;101715.16;6210256;23;20050;-60
2022/05/29 11:41:06;;;;;;;7.82;1.58;;;;;;;18.18;47.26;101707.06;6238416;23;20008;-62
2022/05/29 11:43:38;;;;;;;4.75;1.38;;;;;;;18.28;46.52;101713.66;6210904;23;20008;-63
2022/05/29 11:53:03;;;;;;;6.55;1.20;;;;;;;17.40;48.77;101714.44;6239231;23;20146;-62
2022/05/29 11:55:32;;;;;;;2.65;0.93;;;;;;;17.66;46.00;101706.97;6211720;23;20004;-61
2022/05/29 11:58:00;;;;;;;1.88;0.95;;;;;;;17.89;45.56;101707.63;6238317;23;20004;-61
2022/05/29 12:00:55;;;;;;;5.53;1.03;;;;;;;17.68;45.56;101710.44;6237409;23;20957;-60
2022/05/29 12:03:45;;;;;;;4.88;1.00;;;;;;;18.02;45.42;101706.97;6211348;23;20012;-61
2022/05/29 12:06:30;;;;;;;7.93;1.25;;;;;;;17.88;45.24;101702.38;6236551;23;20075;-62
2022/05/29 12:09:21;;;;;;;5.65;1.42;;;;;;;17.67;46.85;101695.38;6238882;23;20337;-61
2022/05/29 12:11:55;;;;;;;5.75;1.00;;;;;;;17.94;46.91;101694.91;6229696;23;20016;-60
2022/05/29 12:14:35;;;;;;;5.70;1.33;;;;;;;18.35;46.02;101699.97;6238748;23;20375;-61
2022/05/29 12:17:19;;;;;;;2.30;0.82;;;;;;;18.30;45.02;101700.22;6212573;23;20087;-61
2022/05/29 12:19:49;;;;;;;3.72;0.75;;;;;;;18.23;44.53;101696.16;6238390;23;20102;-63
2022/05/29 12:22:18;;;;;;;4.75;0.82;;;;;;;17.77;46.14;101695.78;6209615;23;20031;-61